Time;durP1;ratioP1;P1;durP2;ratioP2;P2;SDS_P1;SDS_P2;PMS_P1;PMS_P2;Temp;Humidity;BMP_temperature;BMP_pressure;BME280_temperature;BME280_humidity;BME280_pressure;Samples;Min_cycle;Max_cycle;Signal;HPM_P1;HPM_P2
2023/02/10 00:02:05;;;;;;;31.60;14.50;;;;;;;-1.83;66.88;101651.96;131273;1248;107387;-73
2023/02/10 00:05:10;;;;;;;32.00;14.80;;;;;;;-1.73;67.07;101654.34;131214;1250;107480;-76
2023/02/10 00:08:16;;;;;;;36.30;15.70;;;;;;;-1.63;66.87;101649.38;131086;1252;108283;-76
2023/02/10 00:11:56;;;;;;;34.40;16.00;;;;;;;-1.55;66.76;101638.52;131270;1248;107513;-74
2023/02/10 00:14:48;;;;;;;29.00;14.20;;;;;;;-1.50;66.83;101628.60;131226;1253;106427;-73
2023/02/10 00:17:54;;;;;;;30.60;15.70;;;;;;;-1.48;66.80;101631.85;131207;1247;107710;-74
2023/02/10 00:21:08;;;;;;;30.10;15.50;;;;;;;-1.49;66.71;101625.77;131442;1247;107500;-74
2023/02/10 00:24:13;;;;;;;28.70;14.40;;;;;;;-1.52;66.92;101623.95;131414;1253;107523;-74
2023/02/10 00:27:23;;;;;;;27.20;14.80;;;;;;;-1.56;66.93;101617.08;131377;1252;108694;-75
2023/02/10 00:30:29;;;;;;;29.10;14.70;;;;;;;-1.62;67.15;101622.98;131417;1253;107484;-75
2023/02/10 00:33:35;;;;;;;28.90;15.00;;;;;;;-1.68;66.94;101620.35;131402;1263;107563;-73
2023/02/10 00:36:40;;;;;;;29.00;14.80;;;;;;;-1.72;66.81;101619.25;131092;1248;107541;-74
2023/02/10 00:39:46;;;;;;;30.20;15.20;;;;;;;-1.78;67.05;101619.05;131339;1253;105615;-74
2023/02/10 00:42:52;;;;;;;29.30;15.00;;;;;;;-1.82;66.89;101623.16;131321;1253;107225;-74
2023/02/10 00:45:58;;;;;;;29.70;14.60;;;;;;;-1.87;66.79;101621.03;131296;1248;107247;-74
2023/02/10 00:49:03;;;;;;;34.40;15.80;;;;;;;-1.91;67.06;101618.17;131446;1248;107453;-74
2023/02/10 00:52:09;;;;;;;27.70;14.30;;;;;;;-1.96;67.32;101618.13;131305;1253;107539;-74
2023/02/10 00:55:14;;;;;;;31.50;15.30;;;;;;;-2.00;67.15;101619.44;131430;1247;107371;-74
2023/02/10 00:58:20;;;;;;;26.20;14.00;;;;;;;-2.03;67.23;101621.98;131186;1250;107494;-74
2023/02/10 01:01:26;;;;;;;26.90;14.70;;;;;;;-2.08;67.24;101620.16;131213;1253;106672;-75
2023/02/10 01:04:31;;;;;;;28.90;14.50;;;;;;;-2.11;67.38;101614.66;131342;1247;107496;-74
2023/02/10 01:07:37;;;;;;;30.90;15.00;;;;;;;-2.15;67.34;101615.64;131498;1252;107409;-74
2023/02/10 01:10:43;;;;;;;27.60;14.40;;;;;;;-2.18;67.28;101616.24;131319;1254;106768;-74
2023/02/10 01:13:49;;;;;;;28.00;14.20;;;;;;;-2.21;67.56;101621.90;131346;1248;108851;-73
2023/02/10 01:16:54;;;;;;;32.40;15.60;;;;;;;-2.25;67.70;101607.86;131177;1263;107525;-74
2023/02/10 01:20:00;;;;;;;42.30;20.30;;;;;;;-2.29;67.61;101614.41;131258;1253;107118;-73
2023/02/10 01:23:06;;;;;;;124.60;43.70;;;;;;;-2.30;67.48;101610.80;131205;1253;107467;-75
2023/02/10 01:26:12;;;;;;;253.00;69.10;;;;;;;-2.34;67.52;101604.61;131279;1248;107421;-75
2023/02/10 01:29:18;;;;;;;587.20;201.30;;;;;;;-2.37;67.64;101604.33;131277;1251;107578;-74
2023/02/10 01:32:23;;;;;;;379.80;115.80;;;;;;;-2.40;67.47;101599.16;131426;1248;107447;-75
2023/02/10 01:35:29;;;;;;;160.10;54.80;;;;;;;-2.41;67.68;101595.54;131282;1253;108645;-75
2023/02/10 01:38:35;;;;;;;99.90;40.70;;;;;;;-2.44;67.63;101589.16;131222;1248;107402;-74
2023/02/10 01:41:41;;;;;;;87.10;35.70;;;;;;;-2.47;67.64;101593.05;131453;1252;107502;-74
2023/02/10 01:45:20;;;;;;;41.70;19.40;;;;;;;-2.49;67.52;101586.50;131264;1254;109273;-75
2023/02/10 01:48:26;;;;;;;31.60;16.20;;;;;;;-2.51;67.80;101591.09;130653;1259;107542;-73
2023/02/10 01:51:39;;;;;;;32.40;16.00;;;;;;;-2.49;67.86;101588.40;131250;1253;107386;-75
2023/02/10 01:54:50;;;;;;;28.60;14.00;;;;;;;-2.43;67.79;101590.17;131155;1247;109007;-74
2023/02/10 01:57:57;;;;;;;25.30;13.50;;;;;;;-2.34;67.73;101588.58;131368;1254;107676;-73
2023/02/10 02:01:02;;;;;;;31.20;14.40;;;;;;;-2.26;67.71;101581.92;131462;1248;107499;-74
2023/02/10 02:04:08;;;;;;;31.90;14.70;;;;;;;-2.21;67.59;101583.71;131533;1253;107576;-74
2023/02/10 02:07:14;;;;;;;31.20;14.70;;;;;;;-2.20;67.69;101582.12;131469;1253;107533;-73
2023/02/10 02:10:19;;;;;;;27.40;14.80;;;;;;;-2.21;67.46;101579.89;131445;1248;107488;-74
2023/02/10 02:13:36;;;;;;;28.10;14.90;;;;;;;-2.24;67.40;101582.40;131195;1263;107501;-74
2023/02/10 02:16:52;;;;;;;31.80;14.80;;;;;;;-2.28;67.66;101582.15;131436;1248;107826;-74
2023/02/10 02:20:43;;;;;;;28.40;14.50;;;;;;;-2.32;67.62;101581.55;131400;1248;108693;-74
2023/02/10 02:24:03;;;;;;;28.60;14.20;;;;;;;-2.37;67.38;101575.20;131259;1248;107439;-75
2023/02/10 02:27:46;;;;;;;28.80;14.60;;;;;;;-2.42;67.59;101572.36;131321;1247;106527;-74
2023/02/10 02:31:18;;;;;;;30.80;15.00;;;;;;;-2.47;67.80;101575.30;131295;1247;107536;-74
2023/02/10 02:34:31;;;;;;;29.40;14.40;;;;;;;-2.52;67.69;101577.50;131219;1253;107497;-74
2023/02/10 02:37:41;;;;;;;28.20;14.00;;;;;;;-2.57;67.85;101576.41;131388;1253;107411;-74
2023/02/10 02:40:47;;;;;;;29.20;14.30;;;;;;;-2.61;67.89;101574.77;131437;1252;106532;-74
2023/02/10 02:43:53;;;;;;;27.90;15.00;;;;;;;-2.65;67.68;101571.54;131478;1253;107412;-75
2023/02/10 02:47:05;;;;;;;28.90;14.70;;;;;;;-2.67;67.84;101575.25;131417;1262;107253;-74
2023/02/10 02:50:19;;;;;;;;;;;;;;;-2.69;68.04;101585.92;131340;1253;107122;-74
2023/02/10 02:53:33;;;;;;;25.90;13.30;;;;;;;-2.71;67.91;101587.36;131437;1252;107559;-74
2023/02/10 02:56:46;;;;;;;27.10;14.00;;;;;;;-2.74;67.98;101590.22;131545;1248;107527;-73
2023/02/10 03:00:00;;;;;;;25.30;13.50;;;;;;;-2.78;67.96;101597.27;131415;1253;107557;-75
2023/02/10 03:03:07;;;;;;;26.70;13.70;;;;;;;-2.79;68.03;101603.91;131466;1254;107535;-74
2023/02/10 03:06:13;;;;;;;27.80;14.50;;;;;;;-2.77;67.97;101601.60;131415;1259;107495;-74
2023/02/10 03:09:20;;;;;;;27.30;13.70;;;;;;;-2.74;67.90;101600.14;131265;1253;107564;-74
2023/02/10 03:12:25;;;;;;;27.90;14.20;;;;;;;-2.70;68.10;101596.05;131265;1253;109267;-74
2023/02/10 03:15:31;;;;;;;29.00;15.00;;;;;;;-2.68;68.13;101593.92;131290;1253;107335;-74
2023/02/10 03:18:37;;;;;;;28.10;14.90;;;;;;;-2.67;67.98;101587.97;131414;1253;106451;-75
2023/02/10 03:21:42;;;;;;;28.90;14.60;;;;;;;-2.67;67.90;101586.23;131446;1253;107232;-74
2023/02/10 03:24:48;;;;;;;30.30;15.90;;;;;;;-2.70;67.93;101580.03;131437;1253;107359;-74
2023/02/10 03:27:54;;;;;;;32.60;16.50;;;;;;;-2.76;68.07;101575.80;131435;1253;107470;-74
2023/02/10 03:31:02;;;;;;;53.00;23.00;;;;;;;-2.80;67.91;101573.45;131234;1253;106434;-74
2023/02/10 03:34:07;;;;;;;99.50;36.80;;;;;;;-2.83;68.08;101573.89;131384;1254;107527;-77
2023/02/10 03:37:13;;;;;;;53.20;24.00;;;;;;;-2.87;68.20;101575.34;131422;1251;107497;-74
2023/02/10 03:40:19;;;;;;;57.20;26.40;;;;;;;-2.90;67.87;101572.29;131111;1249;107517;-75
2023/02/10 03:43:24;;;;;;;45.00;22.40;;;;;;;-2.92;68.20;101573.04;131205;1252;107512;-75
2023/02/10 03:46:30;;;;;;;37.50;18.50;;;;;;;-2.95;68.17;101570.48;131076;1249;107230;-74
2023/02/10 03:49:35;;;;;;;30.20;16.60;;;;;;;-2.98;68.01;101568.63;131326;1251;107995;-76
2023/02/10 03:52:41;;;;;;;30.50;14.90;;;;;;;-2.98;68.30;101568.98;131352;1254;108851;-76
2023/02/10 03:55:47;;;;;;;31.40;15.50;;;;;;;-3.00;68.23;101570.27;131301;1254;105842;-76
2023/02/10 03:58:52;;;;;;;32.90;16.20;;;;;;;-3.02;68.22;101577.95;131084;1250;107244;-74
2023/02/10 04:01:58;;;;;;;29.70;16.00;;;;;;;-3.02;68.15;101578.48;131032;1254;107589;-72
2023/02/10 04:05:03;;;;;;;82.80;32.10;;;;;;;-3.01;68.45;101578.10;131107;1252;106799;-72
2023/02/10 04:08:09;;;;;;;175.10;51.60;;;;;;;-2.95;68.27;101577.96;131377;1248;106539;-72
2023/02/10 04:11:15;;;;;;;76.70;25.20;;;;;;;-2.86;68.30;101571.51;131394;1261;106591;-73
2023/02/10 04:14:20;;;;;;;119.30;34.50;;;;;;;-2.75;68.44;101574.22;131249;1248;107424;-72
2023/02/10 04:17:26;;;;;;;437.10;97.10;;;;;;;-2.66;68.29;101580.98;131401;1253;107506;-73
2023/02/10 04:20:32;;;;;;;421.00;96.10;;;;;;;-2.60;68.42;101590.75;131361;1253;107489;-73
2023/02/10 04:23:38;;;;;;;484.50;266.20;;;;;;;-2.57;68.40;101589.29;131314;1263;109309;-73
2023/02/10 04:26:44;;;;;;;145.30;73.10;;;;;;;-2.55;68.29;101589.60;131267;1264;108649;-73
2023/02/10 04:29:49;;;;;;;86.80;36.70;;;;;;;-2.57;68.36;101595.74;131211;1247;107356;-73
2023/02/10 04:32:55;;;;;;;113.30;47.50;;;;;;;-2.58;68.37;101596.63;131243;1271;107639;-73
2023/02/10 04:36:02;;;;;;;153.20;83.30;;;;;;;-2.59;68.17;101592.12;131241;1248;107531;-75
2023/02/10 04:39:08;;;;;;;59.00;29.00;;;;;;;-2.62;68.37;101587.67;131243;1253;107412;-74
2023/02/10 04:42:13;;;;;;;41.50;19.80;;;;;;;-2.62;68.40;101585.59;131277;1252;107537;-72
2023/02/10 04:45:19;;;;;;;34.70;17.50;;;;;;;-2.62;68.36;101585.41;131313;1247;107229;-73
2023/02/10 04:48:24;;;;;;;87.30;34.70;;;;;;;-2.61;68.27;101588.16;131363;1252;107222;-72
2023/02/10 04:51:30;;;;;;;109.10;40.60;;;;;;;-2.54;68.82;101589.59;131351;1253;107617;-71
2023/02/10 04:54:35;;;;;;;69.40;27.80;;;;;;;-2.46;68.71;101585.73;131254;1248;107506;-73
2023/02/10 04:57:41;;;;;;;151.80;48.70;;;;;;;-2.37;68.53;101584.82;131223;1253;107728;-73
2023/02/10 05:00:47;;;;;;;59.50;22.90;;;;;;;-2.30;68.70;101579.75;131276;1253;107463;-73
2023/02/10 05:03:52;;;;;;;220.00;63.90;;;;;;;-2.22;68.65;101573.45;131436;1252;107515;-73
2023/02/10 05:06:58;;;;;;;269.20;72.90;;;;;;;-2.15;68.65;101566.30;131245;1253;108667;-74
2023/02/10 05:10:04;;;;;;;354.50;105.30;;;;;;;-2.09;68.65;101566.15;131197;1252;107498;-73
2023/02/10 05:13:10;;;;;;;154.10;47.30;;;;;;;-2.03;68.56;101568.77;131356;1253;107491;-72
2023/02/10 05:16:16;;;;;;;87.70;29.40;;;;;;;-2.02;68.64;101566.66;131220;1253;108075;-74
2023/02/10 05:19:22;;;;;;;97.10;34.80;;;;;;;-2.01;68.42;101563.33;131380;1253;107539;-73
2023/02/10 05:22:29;;;;;;;89.10;30.60;;;;;;;-1.96;68.66;101563.02;131417;1253;107459;-72
2023/02/10 05:25:35;;;;;;;57.50;23.40;;;;;;;-1.90;68.70;101560.60;131409;1254;107542;-73
2023/02/10 05:28:40;;;;;;;89.50;32.90;;;;;;;-1.84;68.69;101559.04;131473;1254;107464;-72
2023/02/10 05:31:46;;;;;;;64.50;25.90;;;;;;;-1.79;68.96;101564.66;131267;1253;107237;-73
2023/02/10 05:34:51;;;;;;;105.80;40.40;;;;;;;-1.73;68.68;101575.49;131219;1247;107505;-73
2023/02/10 05:37:57;;;;;;;165.00;59.00;;;;;;;-1.70;68.88;101581.48;131304;1248;108733;-73
2023/02/10 05:41:03;;;;;;;77.70;30.90;;;;;;;-1.66;68.63;101581.90;131417;1253;105478;-73
2023/02/10 05:44:08;;;;;;;93.20;40.30;;;;;;;-1.63;68.74;101579.73;131500;1253;107520;-73
2023/02/10 05:47:14;;;;;;;77.80;36.90;;;;;;;-1.58;68.99;101578.73;131349;1247;107542;-72
2023/02/10 05:50:20;;;;;;;56.00;28.20;;;;;;;-1.53;68.75;101583.13;131285;1254;107531;-72
2023/02/10 05:53:25;;;;;;;49.90;25.20;;;;;;;-1.50;68.87;101593.17;131457;1253;106671;-73
2023/02/10 05:56:31;;;;;;;52.20;25.90;;;;;;;-1.49;68.73;101598.02;131369;1271;107702;-73
2023/02/10 05:59:36;;;;;;;60.30;28.80;;;;;;;-1.46;68.87;101591.83;131366;1253;107526;-73
2023/02/10 06:02:42;;;;;;;162.90;65.80;;;;;;;-1.40;68.76;101595.52;131422;1253;107364;-73
2023/02/10 06:05:48;;;;;;;76.10;33.00;;;;;;;-1.34;68.92;101593.95;131319;1253;108501;-73
2023/02/10 06:08:53;;;;;;;32.40;16.40;;;;;;;-1.26;69.10;101599.83;131535;1253;106995;-73
2023/02/10 06:11:59;;;;;;;29.10;15.50;;;;;;;-1.14;68.92;101603.33;131528;1248;107565;-72
2023/02/10 06:15:05;;;;;;;30.00;15.10;;;;;;;-1.00;68.85;101603.09;131266;1253;106711;-73
2023/02/10 06:18:10;;;;;;;30.10;16.30;;;;;;;-0.88;68.67;101605.86;131477;1252;106551;-73
2023/02/10 06:21:16;;;;;;;28.80;15.10;;;;;;;-0.78;68.79;101604.33;131456;1248;107352;-74
2023/02/10 06:24:22;;;;;;;31.30;16.00;;;;;;;-0.69;68.81;101605.64;131188;1252;107506;-73
2023/02/10 06:27:27;;;;;;;31.40;16.90;;;;;;;-0.63;68.71;101605.81;131472;1253;107383;-72
2023/02/10 06:30:33;;;;;;;52.20;28.20;;;;;;;-0.59;68.68;101605.48;131308;1247;107420;-76
2023/02/10 06:33:39;;;;;;;35.80;19.50;;;;;;;-0.56;68.81;101611.17;131329;1248;107525;-73
2023/02/10 06:36:45;;;;;;;35.50;19.40;;;;;;;-0.55;68.72;101613.58;131239;1250;107554;-73
2023/02/10 06:39:50;;;;;;;31.30;16.80;;;;;;;-0.54;68.77;101615.84;131258;1254;107630;-73
2023/02/10 06:42:56;;;;;;;31.70;16.80;;;;;;;-0.53;68.89;101619.46;131040;1254;106488;-78
2023/02/10 06:46:02;;;;;;;33.60;16.70;;;;;;;-0.53;68.88;101616.66;131058;1257;107238;-73
2023/02/10 06:49:07;;;;;;;30.50;16.60;;;;;;;-0.51;69.01;101619.05;131120;1264;107512;-72
2023/02/10 06:52:13;;;;;;;32.40;18.00;;;;;;;-0.50;68.72;101609.59;131175;1272;107497;-73
2023/02/10 06:55:19;;;;;;;31.20;17.30;;;;;;;-0.51;68.92;101612.06;131131;1255;107195;-75
2023/02/10 06:58:24;;;;;;;132.70;52.60;;;;;;;-0.51;68.94;101611.36;131142;1253;106678;-73
2023/02/10 07:01:30;;;;;;;404.30;139.30;;;;;;;-0.50;69.13;101610.96;131331;1252;108602;-73
2023/02/10 07:04:36;;;;;;;911.10;303.80;;;;;;;-0.46;69.24;101615.56;131426;1255;108531;-74
2023/02/10 07:07:42;;;;;;;679.10;192.70;;;;;;;-0.43;69.04;101618.80;131224;1250;107522;-73
2023/02/10 07:10:48;;;;;;;630.80;193.40;;;;;;;-0.42;69.13;101616.66;131080;1250;107524;-74
2023/02/10 07:13:53;;;;;;;737.70;223.30;;;;;;;-0.40;69.30;101619.92;131023;1256;107525;-73
2023/02/10 07:16:59;;;;;;;516.10;136.00;;;;;;;-0.37;69.32;101620.18;131279;1254;107529;-73
2023/02/10 07:20:05;;;;;;;661.30;192.80;;;;;;;-0.33;69.10;101621.80;131086;1254;106532;-72
2023/02/10 07:23:10;;;;;;;416.50;128.60;;;;;;;-0.29;69.25;101631.98;131256;1256;108127;-72
2023/02/10 07:26:17;;;;;;;260.80;80.20;;;;;;;-0.19;69.36;101632.02;131290;1250;107752;-73
2023/02/10 07:29:24;;;;;;;580.50;263.50;;;;;;;-0.09;69.40;101635.02;131161;1255;108321;-74
2023/02/10 07:32:29;;;;;;;463.50;202.50;;;;;;;0.02;69.31;101634.30;131046;1253;107536;-72
2023/02/10 07:35:36;;;;;;;336.50;125.40;;;;;;;0.14;69.34;101628.30;131142;1256;107505;-73
2023/02/10 07:38:41;;;;;;;379.20;162.90;;;;;;;0.28;69.30;101621.52;131047;1250;107544;-73
2023/02/10 07:41:47;;;;;;;250.00;98.80;;;;;;;0.36;69.10;101625.25;131149;1254;107528;-72
2023/02/10 07:44:52;;;;;;;192.20;90.10;;;;;;;0.43;69.33;101635.88;131109;1253;107494;-73
2023/02/10 07:47:58;;;;;;;87.20;39.80;;;;;;;0.53;69.30;101633.92;131032;1249;107503;-71
2023/02/10 07:51:04;;;;;;;53.20;27.40;;;;;;;0.63;69.41;101627.27;131139;1255;107537;-74
2023/02/10 07:54:10;;;;;;;49.70;25.30;;;;;;;0.73;69.20;101627.09;131031;1263;108413;-72
2023/02/10 07:57:15;;;;;;;38.80;20.70;;;;;;;0.82;69.25;101629.56;131092;1266;107220;-74
2023/02/10 08:00:21;;;;;;;40.40;21.40;;;;;;;0.89;69.02;101628.42;131268;1254;107521;-71
2023/02/10 08:03:27;;;;;;;33.50;18.90;;;;;;;0.96;69.21;101623.42;131274;1256;107578;-71
2023/02/10 08:06:32;;;;;;;37.00;20.40;;;;;;;1.01;69.15;101622.02;131345;1255;108190;-72
2023/02/10 08:09:38;;;;;;;35.70;19.60;;;;;;;1.06;69.33;101621.49;131362;1264;107506;-72
2023/02/10 08:12:46;;;;;;;43.80;22.70;;;;;;;1.12;69.16;101623.35;131244;1247;106272;-73
2023/02/10 08:15:51;;;;;;;34.50;19.00;;;;;;;1.22;69.35;101617.55;131364;1247;107276;-72
2023/02/10 08:18:57;;;;;;;38.90;20.00;;;;;;;1.29;69.24;101609.35;131179;1254;107506;-73
2023/02/10 08:22:02;;;;;;;35.70;19.60;;;;;;;1.36;69.11;101604.54;131146;1255;108479;-73
2023/02/10 08:25:08;;;;;;;32.90;17.40;;;;;;;1.43;69.25;101604.42;131086;1251;107522;-71
2023/02/10 08:28:14;;;;;;;32.20;18.80;;;;;;;1.57;69.21;101606.88;131361;1253;107552;-72
2023/02/10 08:31:20;;;;;;;40.60;19.90;;;;;;;1.66;69.31;101607.95;131055;1265;107227;-73
2023/02/10 08:34:25;;;;;;;65.30;24.80;;;;;;;1.76;69.40;101614.86;131029;1249;107564;-73
2023/02/10 08:37:31;;;;;;;35.50;18.40;;;;;;;1.88;69.27;101618.22;131215;1248;107551;-74
2023/02/10 08:40:37;;;;;;;30.60;18.10;;;;;;;1.99;69.05;101621.45;131182;1248;107351;-73
2023/02/10 08:43:43;;;;;;;32.60;17.90;;;;;;;2.08;69.07;101623.70;131248;1248;107264;-73
2023/02/10 08:46:48;;;;;;;31.60;18.00;;;;;;;2.18;69.11;101621.89;131209;1254;107354;-72
2023/02/10 08:49:54;;;;;;;34.10;19.10;;;;;;;2.25;69.06;101622.29;131352;1247;107472;-73
2023/02/10 08:52:59;;;;;;;30.10;18.10;;;;;;;2.30;68.83;101628.91;131363;1255;105563;-73
2023/02/10 08:56:08;;;;;;;31.90;19.10;;;;;;;2.33;68.81;101625.28;131229;1254;107525;-73
2023/02/10 08:59:14;;;;;;;33.50;19.80;;;;;;;2.35;69.02;101622.37;131445;1253;108088;-71
2023/02/10 09:02:19;;;;;;;33.40;18.80;;;;;;;2.42;69.08;101621.23;131428;1248;107697;-74
2023/02/10 09:05:25;;;;;;;41.60;20.50;;;;;;;2.49;68.99;101620.05;131195;1253;108511;-74
2023/02/10 09:08:31;;;;;;;40.20;20.30;;;;;;;2.50;68.97;101628.95;131238;1254;107419;-73
2023/02/10 09:11:37;;;;;;;37.30;20.10;;;;;;;2.52;68.93;101631.84;131184;1248;107491;-73
2023/02/10 09:14:42;;;;;;;35.80;18.80;;;;;;;2.54;68.96;101629.46;131287;1253;107624;-74
2023/02/10 09:17:48;;;;;;;33.90;19.30;;;;;;;2.56;68.98;101634.67;131258;1247;106412;-73
2023/02/10 09:20:53;;;;;;;36.30;20.30;;;;;;;2.60;69.04;101644.83;131381;1248;108012;-73
2023/02/10 09:23:59;;;;;;;34.20;19.40;;;;;;;2.65;69.01;101647.95;131327;1253;107522;-73
2023/02/10 09:27:04;;;;;;;32.10;19.30;;;;;;;2.64;68.88;101658.02;131425;1248;107670;-72
2023/02/10 09:30:12;;;;;;;34.40;19.60;;;;;;;2.58;68.99;101662.16;131544;1255;107384;-73
2023/02/10 09:33:18;;;;;;;34.80;19.50;;;;;;;2.58;69.19;101661.99;131395;1253;107571;-72
2023/02/10 09:36:23;;;;;;;35.20;20.20;;;;;;;2.65;69.19;101660.45;131223;1253;108639;-73
2023/02/10 09:39:29;;;;;;;38.60;20.20;;;;;;;2.69;68.89;101662.19;131311;1248;106421;-73
2023/02/10 09:42:51;;;;;;;32.10;19.10;;;;;;;2.70;68.76;101660.20;131497;1254;107706;-73
2023/02/10 09:46:06;;;;;;;34.50;18.70;;;;;;;2.82;68.97;101657.90;131236;1263;107495;-73
2023/02/10 09:49:26;;;;;;;29.10;17.80;;;;;;;2.99;68.61;101657.34;131228;1254;107515;-73
2023/02/10 09:52:43;;;;;;;34.10;19.00;;;;;;;3.17;68.51;101658.45;131227;1257;107523;-74
2023/02/10 09:55:51;;;;;;;33.10;19.00;;;;;;;3.27;68.43;101661.52;131342;1254;107262;-74
2023/02/10 09:58:59;;;;;;;35.50;19.50;;;;;;;3.33;68.24;101664.05;131372;1254;107555;-74
2023/02/10 10:02:17;;;;;;;38.20;19.30;;;;;;;3.33;68.52;101662.28;131407;1271;107318;-71
2023/02/10 10:05:34;;;;;;;30.00;17.70;;;;;;;3.39;68.43;101664.48;131341;1253;107515;-73
2023/02/10 10:08:48;;;;;;;32.30;18.60;;;;;;;3.40;68.35;101665.48;131226;1260;107507;-74
2023/02/10 10:11:55;;;;;;;54.40;29.90;;;;;;;3.39;68.49;101666.23;131238;1261;107566;-73
2023/02/10 10:15:00;;;;;;;95.10;42.90;;;;;;;3.39;68.35;101673.29;131289;1254;107543;-73
2023/02/10 10:18:17;;;;;;;186.90;67.80;;;;;;;3.37;68.51;101671.45;131183;1253;105685;-74
2023/02/10 10:21:32;;;;;;;158.40;54.60;;;;;;;3.42;68.55;101669.96;131316;1253;107489;-74
2023/02/10 10:25:00;;;;;;;580.40;219.80;;;;;;;3.39;68.48;101673.24;131435;1271;107558;-74
2023/02/10 10:28:19;;;;;;;681.10;246.40;;;;;;;3.38;68.57;101677.53;131289;1254;107499;-73
2023/02/10 10:31:29;;;;;;;726.00;300.80;;;;;;;3.39;68.56;101672.20;131349;1254;106631;-73
2023/02/10 10:34:40;;;;;;;400.40;158.80;;;;;;;3.38;68.66;101667.48;131384;1254;107445;-73
2023/02/10 10:37:46;;;;;;;288.80;121.10;;;;;;;3.43;68.70;101670.59;131340;1267;107206;-73
2023/02/10 10:40:55;;;;;;;158.10;73.30;;;;;;;3.45;68.60;101680.35;131395;1254;107374;-75
2023/02/10 10:44:02;;;;;;;149.90;77.60;;;;;;;3.42;68.72;101674.00;131276;1248;107376;-74
2023/02/10 10:47:14;;;;;;;59.20;30.10;;;;;;;3.36;68.64;101670.74;131294;1253;107399;-74
2023/02/10 10:50:23;;;;;;;42.00;23.40;;;;;;;3.22;68.72;101671.40;131387;1254;107274;-73
2023/02/10 10:53:38;;;;;;;33.70;20.40;;;;;;;3.10;68.82;101670.02;131291;1248;107524;-72
2023/02/10 10:56:48;;;;;;;36.80;19.20;;;;;;;3.01;69.05;101676.23;131297;1254;107380;-73
2023/02/10 10:59:59;;;;;;;33.90;18.20;;;;;;;3.00;69.01;101680.13;131259;1254;108675;-74
2023/02/10 11:03:06;;;;;;;33.10;18.30;;;;;;;3.05;69.11;101681.16;131280;1271;107711;-72
2023/02/10 11:06:19;;;;;;;35.40;18.80;;;;;;;3.13;69.22;101682.52;131321;1253;108829;-72
2023/02/10 11:09:30;;;;;;;35.60;18.70;;;;;;;3.17;68.99;101678.30;131252;1261;107507;-73
2023/02/10 11:12:40;;;;;;;32.70;17.60;;;;;;;3.26;69.17;101684.42;131268;1254;107063;-73
2023/02/10 11:15:47;;;;;;;35.10;18.30;;;;;;;3.37;69.07;101687.25;131342;1261;107515;-74
2023/02/10 11:18:57;;;;;;;37.10;19.20;;;;;;;3.45;69.05;101686.69;131281;1253;108551;-73
2023/02/10 11:22:14;;;;;;;39.10;19.90;;;;;;;3.51;69.05;101683.22;131520;1254;107513;-73
2023/02/10 11:25:29;;;;;;;34.50;18.90;;;;;;;3.54;68.69;101679.40;131224;1254;107424;-73
2023/02/10 11:28:36;;;;;;;35.60;19.00;;;;;;;3.54;68.98;101678.17;131276;1254;108121;-74
2023/02/10 11:31:42;;;;;;;33.70;18.90;;;;;;;3.54;69.04;101688.55;131182;1253;107540;-74
2023/02/10 11:34:50;;;;;;;35.30;19.10;;;;;;;3.52;68.81;101695.48;131237;1264;107679;-74
2023/02/10 11:37:59;;;;;;;37.80;20.50;;;;;;;3.38;68.85;101694.58;131189;1253;108541;-75
2023/02/10 11:41:09;;;;;;;34.90;19.20;;;;;;;3.33;69.12;101691.63;131200;1248;107530;-73
2023/02/10 11:44:27;;;;;;;35.70;18.90;;;;;;;3.32;69.08;101696.27;131300;1254;108523;-73
2023/02/10 11:47:33;;;;;;;33.00;17.90;;;;;;;3.28;69.09;101695.60;131340;1255;107386;-74
2023/02/10 11:50:39;;;;;;;34.20;18.70;;;;;;;3.21;69.13;101692.06;131120;1251;107560;-74
2023/02/10 11:53:47;;;;;;;35.90;18.00;;;;;;;3.19;69.31;101681.45;131088;1263;108667;-73
2023/02/10 12:00:33;;;;;;;33.40;18.40;;;;;;;3.28;69.37;101689.26;131123;1255;107671;-73
2023/02/10 12:04:02;;;;;;;36.10;18.40;;;;;;;3.26;69.25;101679.46;130995;1255;107593;-73
2023/02/10 12:07:16;;;;;;;36.50;20.00;;;;;;;3.21;69.27;101680.77;130961;1253;107555;-73
2023/02/10 12:10:28;;;;;;;37.20;19.10;;;;;;;3.19;69.38;101684.04;130935;1263;107213;-74
2023/02/10 12:13:42;;;;;;;37.00;19.10;;;;;;;3.20;69.37;101692.79;131057;1273;107947;-74
2023/02/10 12:16:54;;;;;;;35.40;18.20;;;;;;;3.17;69.35;101695.02;131098;1263;108759;-74
2023/02/10 12:20:16;;;;;;;28.60;17.30;;;;;;;3.13;69.31;101701.36;131026;1255;108556;-75
2023/02/10 12:23:50;;;;;;;30.70;17.80;;;;;;;3.09;69.40;101701.01;131133;1253;107520;-73
2023/02/10 12:26:59;;;;;;;36.20;17.90;;;;;;;3.06;69.32;101703.61;131258;1263;107372;-73
2023/02/10 12:30:20;;;;;;;31.00;17.50;;;;;;;2.97;69.44;101702.23;131269;1251;107262;-73
2023/02/10 12:33:40;;;;;;;32.00;17.40;;;;;;;3.06;69.54;101701.48;131165;1251;107473;-75
2023/02/10 12:36:57;;;;;;;33.00;17.50;;;;;;;3.19;69.43;101704.60;131184;1263;109254;-74
2023/02/10 12:40:19;;;;;;;38.70;19.40;;;;;;;3.32;69.53;101706.83;131256;1255;107387;-75
2023/02/10 12:43:40;;;;;;;31.50;18.40;;;;;;;3.39;69.18;101708.79;131487;1261;107392;-74
2023/02/10 12:46:59;;;;;;;34.50;18.80;;;;;;;3.41;69.20;101707.11;131238;1254;107545;-73
2023/02/10 12:50:41;;;;;;;34.10;18.90;;;;;;;3.42;69.34;101708.98;131146;1255;107720;-74
2023/02/10 12:53:49;;;;;;;38.10;23.80;;;;;;;3.45;69.36;101704.47;131367;1263;107556;-73
2023/02/10 12:56:59;;;;;;;42.10;26.30;;;;;;;3.47;69.22;101700.13;131121;1251;107515;-75
2023/02/10 13:00:13;;;;;;;43.50;24.20;;;;;;;3.51;69.21;101709.30;131267;1259;107387;-74
2023/02/10 13:03:23;;;;;;;36.80;20.90;;;;;;;3.44;69.01;101709.95;131302;1253;106044;-71
2023/02/10 13:06:35;;;;;;;51.70;27.90;;;;;;;3.36;69.18;101714.39;131116;1254;107936;-74
2023/02/10 13:09:46;;;;;;;45.50;25.30;;;;;;;3.30;69.18;101709.00;131179;1262;107577;-74
2023/02/10 13:12:54;;;;;;;41.90;22.50;;;;;;;3.26;69.41;101711.65;131292;1254;107859;-74
2023/02/10 13:16:06;;;;;;;38.10;22.20;;;;;;;3.23;69.49;101714.46;131054;1255;110080;-73
2023/02/10 13:19:25;;;;;;;41.20;23.70;;;;;;;3.21;69.46;101709.95;131124;1251;107492;-74
2023/02/10 13:22:48;;;;;;;43.80;24.70;;;;;;;3.21;69.53;101712.45;131062;1251;107458;-73
2023/02/10 13:26:08;;;;;;;41.90;23.30;;;;;;;3.19;69.48;101712.35;131266;1251;107501;-73
2023/02/10 13:29:25;;;;;;;38.10;22.50;;;;;;;3.15;69.46;101716.40;131132;1251;108525;-73
2023/02/10 13:32:48;;;;;;;50.50;27.80;;;;;;;3.08;69.49;101715.80;131206;1251;107363;-74
2023/02/10 13:35:53;;;;;;;;;;;;;;;3.03;69.67;101721.33;131401;1254;107263;-72
2023/02/10 13:39:05;;;;;;;44.60;23.90;;;;;;;2.96;69.62;101724.27;131205;1254;108688;-73
2023/02/10 13:42:22;;;;;;;44.40;24.30;;;;;;;2.88;69.74;101721.83;131110;1251;107472;-74
2023/02/10 13:45:29;;;;;;;48.30;26.30;;;;;;;2.89;69.98;101716.83;131098;1256;107529;-73
2023/02/10 13:48:38;;;;;;;51.10;27.00;;;;;;;2.90;69.94;101714.88;131345;1254;107584;-73
2023/02/10 13:51:44;;;;;;;47.50;26.80;;;;;;;2.94;69.85;101714.86;131103;1253;105960;-74
2023/02/10 13:55:01;;;;;;;49.30;25.30;;;;;;;3.04;69.98;101705.83;131288;1254;106760;-72
2023/02/10 13:58:28;;;;;;;47.30;26.60;;;;;;;3.01;69.99;101714.19;131381;1261;107399;-73
2023/02/10 14:01:36;;;;;;;52.80;27.80;;;;;;;2.98;69.94;101719.24;131040;1254;107457;-73
2023/02/10 14:04:46;;;;;;;79.10;43.20;;;;;;;3.00;69.87;101718.77;131150;1264;107248;-73
2023/02/10 14:07:52;;;;;;;52.40;28.00;;;;;;;3.02;69.92;101715.38;131226;1250;107810;-74